الصفحة الرئيسية
METAR-TAF:

METAR-TAF

مطار :

Tinian, جزر ماريانا, الولايات المتحدة

دائرة عرض: 14-59N, خط طول: 145-37E, ارتفاع: 82 متر

مراقبة الطقس الحالي

تاريخ ووقت الإصدار 9ساعات و 16 دقيقة قبل الساعة 08:55UTC
ريح 6 عقدة من الشرق/الجنوب الشرقي
درجة الحرارة 28°درجة مئوية
الرطوبة 70%
ضغط 1008 hPa
الرؤية: 11.3 كم
غيوم متفرقة على ارتفاع 2000 قدم

METAR: PGWT 220855Z 12006KT 7SM SCT020 28/22 A2978 RMK LAST

زمن: 04:11 (18:11 UTC)

توقعات

تاريخ ووقت الإصدار 51 دقيقة قبل الساعة 17:20UTC
التوقعات صالحة من22 الساعة 18 UTC إلى 23 الساعة 18 UTC
ريح 4 عقدةمن اتجاهات متغيرة
الرؤية: 10 كم
غيوم قليلة على ارتفاع 3000 قدم
غيوم قليلة على ارتفاع 5000 قدم
زخات في الجوار
من 23 الساعة 0200 UTC
ريح 6 عقدة من الغرب/الجنوب الغربي
الرؤية: 10 كم
غيوم متفرقة على ارتفاع 2500 قدم
غيوم مفككة على ارتفاع 5000 قدم
زخات في الجوار
من 23 الساعة 0800 UTC
ريح 4 عقدةمن اتجاهات متغيرة
الرؤية: 10 كم
غيوم قليلة على ارتفاع 3000 قدم
غيوم قليلة على ارتفاع 5000 قدم

TAF: PGWT 221720Z 2218/2318 VRB04KT P6SM VCSH FEW030 FEW050 FM230200 24006KT P6SM VCSH SCT025 BKN050 FM230800 VRB04KT P6SM FEW030 FEW050

أرصاد الطقس والتوقعات من أكثر من 4000 مطار (تقارير الطقس للمطار METAR والتنبؤ بالطقس بالمطارTAF).

المحطات المتاحة هي النقط الصفراء والحمراء على الخريطة.

حرك المؤشر فوق النقطة لمعرفة اسم المحطة.

ثم انقر لمعرفة أرصاد وتوقعات الطقس.

لتغيير الخارطة: اضغط على الأزرار الخضراء مع رمز الصليب الأسود للتكبير. على الزر الأخضر مع شرطة للتصغير، أو على الأسهم الخضراء للخرائط المجاورة.


METAR-TAF: